Time;durP1;ratioP1;P1;durP2;ratioP2;P2;SDS_P1;SDS_P2;PMS_P1;PMS_P2;Temp;Humidity;BMP_temperature;BMP_pressure;BME280_temperature;BME280_humidity;BME280_pressure;Samples;Min_cycle;Max_cycle;Signal;HPM_P1;HPM_P2
2023/03/05 00:03:34;;;;;;;;;;;19.90;29.20;;;;;;8365509;28;19966;-44
2023/03/05 00:07:34;;;;;;;;;;;19.80;29.20;;;;;;8364860;28;19939;-43
2023/03/05 00:11:35;;;;;;;;;;;19.80;29.20;;;;;;8365195;28;19928;-44
2023/03/05 00:15:39;;;;;;;;;;;19.80;29.20;;;;;;8364967;28;19917;-43
2023/03/05 00:19:40;;;;;;;;;;;19.70;29.20;;;;;;8364597;28;20329;-43
2023/03/05 00:23:40;;;;;;;;;;;19.70;29.20;;;;;;8364880;28;20011;-44
2023/03/05 00:27:41;;;;;;;;;;;19.70;29.20;;;;;;8364714;28;19917;-43
2023/03/05 00:31:43;;;;;;;;;;;19.70;29.20;;;;;;8364423;28;19916;-44
2023/03/05 00:35:44;;;;;;;;;;;19.70;29.20;;;;;;8364363;28;19923;-43
2023/03/05 00:39:44;;;;;;;;;;;19.60;29.30;;;;;;8364310;28;20333;-42
2023/03/05 00:43:45;;;;;;;;;;;19.60;29.20;;;;;;8363720;28;19928;-43
2023/03/05 00:47:45;;;;;;;;;;;19.60;29.20;;;;;;8364311;28;19924;-43
2023/03/05 00:51:46;;;;;;;;;;;19.60;29.20;;;;;;8345737;28;20281;-40
2023/03/05 00:55:46;;;;;;;;;;;19.60;29.20;;;;;;8363800;28;19917;-44
2023/03/05 00:59:47;;;;;;;;;;;19.60;29.20;;;;;;8364090;28;20303;-43
2023/03/05 01:03:47;;;;;;;;;;;19.60;29.20;;;;;;8363290;28;20012;-44
2023/03/05 01:07:51;;;;;;;;;;;19.50;29.20;;;;;;8363292;28;19917;-44
2023/03/05 01:11:51;;;;;;;;;;;19.50;29.20;;;;;;8363466;28;20003;-42
2023/03/05 01:15:52;;;;;;;;;;;19.50;29.20;;;;;;8362802;28;19917;-44
2023/03/05 01:19:52;;;;;;;;;;;19.50;29.20;;;;;;8363181;28;19967;-43
2023/03/05 01:23:53;;;;;;;;;;;19.50;29.20;;;;;;8363480;28;19931;-44
2023/03/05 01:27:54;;;;;;;;;;;19.50;29.20;;;;;;8362598;28;19982;-43
2023/03/05 01:31:54;;;;;;;;;;;19.50;29.20;;;;;;8362887;28;19921;-44
2023/03/05 01:35:54;;;;;;;;;;;19.40;29.20;;;;;;8362826;28;19917;-44
2023/03/05 01:39:55;;;;;;;;;;;19.40;29.20;;;;;;8362501;28;20374;-44
2023/03/05 01:43:55;;;;;;;;;;;19.40;29.20;;;;;;8363787;28;19953;-43
2023/03/05 01:47:56;;;;;;;;;;;19.40;29.20;;;;;;8344909;28;20332;-44
2023/03/05 01:52:06;;;;;;;;;;;19.40;29.20;;;;;;8362260;28;19917;-44
2023/03/05 01:56:07;;;;;;;;;;;19.40;29.20;;;;;;8362596;28;19917;-44
2023/03/05 02:00:12;;;;;;;;;;;19.40;29.20;;;;;;8362465;28;20377;-44
2023/03/05 02:04:14;;;;;;;;;;;19.30;29.20;;;;;;8360930;28;19978;-44
2023/03/05 02:08:16;;;;;;;;;;;19.30;29.20;;;;;;8362377;28;20026;-44
2023/03/05 02:12:17;;;;;;;;;;;19.30;29.20;;;;;;8363089;28;19923;-44
2023/03/05 02:16:17;;;;;;;;;;;19.30;29.20;;;;;;8368341;28;19917;-44
2023/03/05 02:20:19;;;;;;;;;;;19.30;29.20;;;;;;8368518;28;19917;-45
2023/03/05 02:24:34;;;;;;;;;;;19.30;29.20;;;;;;8368621;28;20394;-44
2023/03/05 02:28:39;;;;;;;;;;;19.20;29.20;;;;;;8367771;28;19923;-44
2023/03/05 02:32:40;;;;;;;;;;;19.20;29.20;;;;;;8368150;28;19924;-44
2023/03/05 02:36:40;;;;;;;;;;;19.20;29.20;;;;;;8368212;28;20250;-44
2023/03/05 02:40:40;;;;;;;;;;;19.20;29.20;;;;;;8367496;28;20012;-43
2023/03/05 02:44:41;;;;;;;;;;;19.10;29.20;;;;;;8368329;28;19928;-44
2023/03/05 02:48:41;;;;;;;;;;;19.20;29.30;;;;;;8367776;28;19991;-44
2023/03/05 02:52:42;;;;;;;;;;;19.10;29.20;;;;;;8367098;28;20289;-43
2023/03/05 02:56:42;;;;;;;;;;;19.10;29.30;;;;;;8367569;28;20011;-44
2023/03/05 03:00:43;;;;;;;;;;;19.10;29.20;;;;;;8367467;28;19921;-43
2023/03/05 03:04:43;;;;;;;;;;;19.10;29.50;;;;;;8366846;28;19933;-45
2023/03/05 03:08:44;;;;;;;;;;;19.00;29.20;;;;;;8367158;28;19920;-43
2023/03/05 03:12:44;;;;;;;;;;;19.00;29.20;;;;;;8366985;28;19948;-43
2023/03/05 03:16:45;;;;;;;;;;;19.00;29.20;;;;;;8366435;28;19963;-44
2023/03/05 03:20:46;;;;;;;;;;;19.00;29.20;;;;;;8366680;28;20259;-43
2023/03/05 03:24:46;;;;;;;;;;;19.00;29.20;;;;;;8365137;28;19921;-41
2023/03/05 03:28:46;;;;;;;;;;;19.00;29.20;;;;;;8366622;28;20426;-43
2023/03/05 03:32:47;;;;;;;;;;;18.90;29.20;;;;;;8366325;28;19979;-44
2023/03/05 03:36:48;;;;;;;;;;;18.90;29.20;;;;;;8365789;28;19917;-43
2023/03/05 03:40:48;;;;;;;;;;;18.90;29.20;;;;;;8366229;28;19917;-43
2023/03/05 03:44:49;;;;;;;;;;;18.90;29.20;;;;;;8366164;28;20003;-43
2023/03/05 03:48:50;;;;;;;;;;;18.90;29.20;;;;;;8365588;28;20330;-43
2023/03/05 03:52:51;;;;;;;;;;;18.90;29.20;;;;;;8365935;28;19916;-43
2023/03/05 03:56:52;;;;;;;;;;;18.90;29.20;;;;;;8365667;28;19917;-43
2023/03/05 04:00:52;;;;;;;;;;;18.90;29.20;;;;;;8365709;28;19986;-43
2023/03/05 04:04:52;;;;;;;;;;;18.80;29.60;;;;;;8365772;28;19956;-43
2023/03/05 04:08:53;;;;;;;;;;;18.80;29.20;;;;;;8365323;28;19921;-43
2023/03/05 04:12:53;;;;;;;;;;;18.80;29.20;;;;;;8364724;28;19928;-43
2023/03/05 04:16:54;;;;;;;;;;;18.80;29.20;;;;;;8364971;28;19921;-43
2023/03/05 04:20:54;;;;;;;;;;;18.80;29.20;;;;;;8364775;28;19924;-43
2023/03/05 04:24:55;;;;;;;;;;;18.80;29.20;;;;;;8364302;28;19978;-43
2023/03/05 04:28:55;;;;;;;;;;;18.80;29.20;;;;;;8364668;28;20119;-43
2023/03/05 04:32:56;;;;;;;;;;;18.80;29.10;;;;;;8364455;28;19924;-44
2023/03/05 04:36:56;;;;;;;;;;;18.80;29.20;;;;;;8363872;28;20426;-43
2023/03/05 04:40:57;;;;;;;;;;;18.80;29.10;;;;;;8364482;28;19920;-43
2023/03/05 04:44:57;;;;;;;;;;;18.80;29.10;;;;;;8364353;28;19924;-43
2023/03/05 04:48:58;;;;;;;;;;;18.80;29.10;;;;;;8363637;28;19917;-43
2023/03/05 04:52:59;;;;;;;;;;;18.80;29.10;;;;;;8364055;28;20000;-43
2023/03/05 04:56:59;;;;;;;;;;;18.70;29.10;;;;;;8364152;28;19916;-43
2023/03/05 05:01:04;;;;;;;;;;;18.70;29.10;;;;;;8362208;28;19936;-43
2023/03/05 05:05:04;;;;;;;;;;;18.70;29.10;;;;;;8363968;28;19932;-44
2023/03/05 05:09:05;;;;;;;;;;;18.70;29.10;;;;;;8363678;28;19917;-43
2023/03/05 05:13:06;;;;;;;;;;;18.80;29.60;;;;;;8363090;28;20015;-43
2023/03/05 05:17:06;;;;;;;;;;;18.80;29.10;;;;;;8363578;28;19923;-44
2023/03/05 05:21:11;;;;;;;;;;;19.00;29.00;;;;;;8363501;28;19913;-43
2023/03/05 05:25:11;;;;;;;;;;;19.10;29.00;;;;;;8362986;28;20306;-43
2023/03/05 05:29:11;;;;;;;;;;;19.20;28.90;;;;;;8345265;28;19963;-43
2023/03/05 05:33:12;;;;;;;;;;;19.30;28.90;;;;;;8363410;28;19920;-44
2023/03/05 05:37:12;;;;;;;;;;;19.40;28.80;;;;;;8363065;28;19967;-43
2023/03/05 05:41:14;;;;;;;;;;;19.50;28.80;;;;;;8362967;28;20339;-43
2023/03/05 05:45:14;;;;;;;;;;;19.50;28.80;;;;;;8363193;28;19924;-43
2023/03/05 05:49:15;;;;;;;;;;;19.60;28.80;;;;;;8366506;28;20004;-43
2023/03/05 05:53:15;;;;;;;;;;;19.70;28.70;;;;;;8369904;28;20287;-43
2023/03/05 05:57:16;;;;;;;;;;;19.70;28.70;;;;;;8369616;28;19923;-42
2023/03/05 06:01:18;;;;;;;;;;;19.70;28.70;;;;;;8369456;28;19928;-43
2023/03/05 06:05:19;;;;;;;;;;;19.80;28.70;;;;;;8369396;28;19925;-44
2023/03/05 06:09:19;;;;;;;;;;;19.80;28.60;;;;;;8369171;28;19928;-43
2023/03/05 06:13:20;;;;;;;;;;;19.80;28.60;;;;;;8368586;28;20429;-43
2023/03/05 06:17:20;;;;;;;;;;;19.90;28.60;;;;;;8369259;28;19912;-44
2023/03/05 06:21:22;;;;;;;;;;;19.90;28.60;;;;;;8368881;28;19948;-43
2023/03/05 06:25:22;;;;;;;;;;;19.90;28.60;;;;;;8368455;28;19974;-46
2023/03/05 06:29:23;;;;;;;;;;;19.90;28.60;;;;;;8368056;28;19917;-43
2023/03/05 06:33:24;;;;;;;;;;;19.90;28.60;;;;;;8368624;28;20286;-44
2023/03/05 06:37:24;;;;;;;;;;;19.90;28.60;;;;;;8367919;28;19921;-42
2023/03/05 06:41:26;;;;;;;;;;;19.90;28.50;;;;;;8368211;28;19958;-42
2023/03/05 06:45:27;;;;;;;;;;;19.90;28.50;;;;;;8368230;28;19931;-42
2023/03/05 06:49:27;;;;;;;;;;;19.90;28.50;;;;;;8367586;28;19916;-43
2023/03/05 06:53:28;;;;;;;;;;;19.80;28.50;;;;;;8367981;28;19916;-42
2023/03/05 06:57:28;;;;;;;;;;;19.80;28.60;;;;;;8367728;28;19913;-45
2023/03/05 07:01:28;;;;;;;;;;;19.80;28.60;;;;;;8367554;28;20377;-43
2023/03/05 07:05:29;;;;;;;;;;;19.80;28.60;;;;;;8367459;28;20003;-44
2023/03/05 07:09:29;;;;;;;;;;;19.90;28.60;;;;;;8366822;28;19924;-42
2023/03/05 07:13:30;;;;;;;;;;;19.90;28.60;;;;;;8366652;28;19970;-44
2023/03/05 07:17:30;;;;;;;;;;;19.90;28.60;;;;;;8367011;28;19913;-43
2023/03/05 07:21:32;;;;;;;;;;;19.90;28.50;;;;;;8366900;28;20432;-43
2023/03/05 07:25:34;;;;;;;;;;;20.00;28.50;;;;;;8366147;28;19925;-44
2023/03/05 07:29:35;;;;;;;;;;;20.00;28.40;;;;;;8366596;28;19920;-43
2023/03/05 07:33:36;;;;;;;;;;;20.00;28.40;;;;;;8366448;28;19988;-44
2023/03/05 07:37:36;;;;;;;;;;;20.10;28.40;;;;;;8366016;28;19924;-44
2023/03/05 07:41:37;;;;;;;;;;;20.10;28.30;;;;;;8366331;28;19975;-45
2023/03/05 07:45:41;;;;;;;;;;;20.10;28.40;;;;;;8366123;28;19925;-45
2023/03/05 07:49:42;;;;;;;;;;;20.10;28.40;;;;;;8365484;28;20382;-44
2023/03/05 07:53:43;;;;;;;;;;;20.20;28.40;;;;;;8366029;28;19913;-45
2023/03/05 07:57:43;;;;;;;;;;;20.20;28.40;;;;;;8365951;28;19917;-44
2023/03/05 08:01:45;;;;;;;;;;;20.20;28.30;;;;;;8366074;28;19924;-46
2023/03/05 08:05:45;;;;;;;;;;;20.20;28.30;;;;;;8364430;28;19931;-45
2023/03/05 08:09:46;;;;;;;;;;;20.20;28.30;;;;;;8364808;28;20251;-44
2023/03/05 08:13:46;;;;;;;;;;;20.20;28.30;;;;;;8364562;28;19923;-47
2023/03/05 08:17:46;;;;;;;;;;;20.20;28.30;;;;;;8365293;28;19920;-45
2023/03/05 08:21:47;;;;;;;;;;;20.20;28.30;;;;;;8365050;28;19963;-44
2023/03/05 08:25:47;;;;;;;;;;;20.20;28.30;;;;;;8364745;28;19932;-44
2023/03/05 08:29:48;;;;;;;;;;;20.10;28.30;;;;;;8365024;28;19926;-45
2023/03/05 08:33:49;;;;;;;;;;;20.10;28.30;;;;;;8364124;28;20267;-46
2023/03/05 08:37:50;;;;;;;;;;;20.10;28.30;;;;;;8364597;28;19920;-45
2023/03/05 08:41:51;;;;;;;;;;;20.10;28.80;;;;;;8364838;28;19974;-45
2023/03/05 08:45:52;;;;;;;;;;;20.10;28.40;;;;;;8345660;28;19931;-43
2023/03/05 08:49:56;;;;;;;;;;;20.10;28.30;;;;;;8364371;28;20003;-43
2023/03/05 08:53:57;;;;;;;;;;;20.00;28.30;;;;;;8364112;28;20263;-45
2023/03/05 08:57:58;;;;;;;;;;;20.00;28.40;;;;;;8363356;28;19917;-45
2023/03/05 09:02:01;;;;;;;;;;;20.10;28.40;;;;;;8363792;28;19924;-44
2023/03/05 09:06:03;;;;;;;;;;;20.20;28.40;;;;;;8363651;28;20056;-45
2023/03/05 09:10:04;;;;;;;;;;;20.20;28.30;;;;;;8362833;28;19916;-45
2023/03/05 09:14:05;;;;;;;;;;;20.20;28.30;;;;;;8363459;28;20011;-45
2023/03/05 09:18:07;;;;;;;;;;;20.30;28.30;;;;;;8363236;28;20366;-46
2023/03/05 09:22:08;;;;;;;;;;;20.40;28.30;;;;;;8362125;28;19916;-45
2023/03/05 09:26:10;;;;;;;;;;;20.40;28.30;;;;;;8362974;28;20007;-45
2023/03/05 09:30:12;;;;;;;;;;;20.40;28.20;;;;;;8362963;28;19916;-45
2023/03/05 09:34:12;;;;;;;;;;;20.50;28.30;;;;;;8362428;28;19921;-46
2023/03/05 09:38:13;;;;;;;;;;;20.50;28.20;;;;;;8362734;28;19996;-46
2023/03/05 09:42:23;;;;;;;;;;;20.50;28.20;;;;;;8362970;28;20332;-46
2023/03/05 09:46:28;;;;;;;;;;;20.50;28.20;;;;;;8362408;28;20030;-45
2023/03/05 09:50:34;;;;;;;;;;;20.50;28.20;;;;;;8362213;28;19917;-44
2023/03/05 09:54:37;;;;;;;;;;;20.50;28.20;;;;;;8362841;28;19921;-45
2023/03/05 09:58:42;;;;;;;;;;;20.50;28.20;;;;;;8362140;28;20385;-45
2023/03/05 10:02:49;;;;;;;;;;;20.60;28.20;;;;;;8344931;28;19925;-45
2023/03/05 10:06:59;;;;;;;;;;;20.60;28.20;;;;;;8362351;28;19913;-43
2023/03/05 10:11:01;;;;;;;;;;;20.60;28.20;;;;;;8362530;28;19955;-45
2023/03/05 10:15:02;;;;;;;;;;;20.60;28.20;;;;;;8362650;28;20360;-45
2023/03/05 10:19:21;;;;;;;;;;;20.60;28.20;;;;;;8362011;28;19917;-46
2023/03/05 10:23:28;;;;;;;;;;;20.60;28.20;;;;;;8362255;28;19971;-44
2023/03/05 10:27:34;;;;;;;;;;;20.60;28.20;;;;;;8362721;28;19917;-45
2023/03/05 10:31:43;;;;;;;;;;;20.70;28.20;;;;;;8361603;28;19921;-45
2023/03/05 10:36:09;;;;;;;;;;;20.70;28.20;;;;;;8366561;28;19917;-45
2023/03/05 10:40:16;;;;;;;;;;;20.70;28.20;;;;;;8367792;28;19948;-45
2023/03/05 10:44:23;;;;;;;;;;;20.70;28.20;;;;;;8368136;28;20370;-45
2023/03/05 10:48:41;;;;;;;;;;;20.70;28.20;;;;;;8368024;28;19924;-44
2023/03/05 10:52:47;;;;;;;;;;;20.70;28.20;;;;;;8367445;28;19920;-46
2023/03/05 10:56:47;;;;;;;;;;;20.70;28.20;;;;;;8368090;28;19916;-45
2023/03/05 11:01:00;;;;;;;;;;;20.70;28.20;;;;;;8366847;28;19974;-44
2023/03/05 11:05:00;;;;;;;;;;;20.80;28.20;;;;;;8367314;28;19956;-44
2023/03/05 11:09:10;;;;;;;;;;;20.80;28.20;;;;;;8355022;28;19924;-45
2023/03/05 11:13:26;;;;;;;;;;;20.80;28.20;;;;;;8366913;28;19917;-44
2023/03/05 11:17:28;;;;;;;;;;;20.80;28.20;;;;;;8367564;28;19912;-44
2023/03/05 11:21:29;;;;;;;;;;;20.80;28.10;;;;;;8366985;28;19921;-45
2023/03/05 11:25:30;;;;;;;;;;;20.80;28.10;;;;;;8366221;28;19924;-44
2023/03/05 11:29:31;;;;;;;;;;;20.90;28.20;;;;;;8366928;28;19921;-46
2023/03/05 11:33:32;;;;;;;;;;;20.90;28.10;;;;;;8366643;28;19920;-45
2023/03/05 11:37:33;;;;;;;;;;;20.90;28.10;;;;;;8366259;28;20325;-42
2023/03/05 11:41:36;;;;;;;;;;;20.90;28.00;;;;;;8366222;28;19927;-45
2023/03/05 11:45:36;;;;;;;;;;;20.90;28.00;;;;;;8365119;28;20014;-45
2023/03/05 11:49:40;;;;;;;;;;;20.90;28.10;;;;;;8365482;28;19940;-46
2023/03/05 11:53:43;;;;;;;;;;;20.80;28.00;;;;;;8365836;28;19919;-46
2023/03/05 11:57:51;;;;;;;;;;;20.80;28.00;;;;;;8366184;28;20289;-46
2023/03/05 12:01:53;;;;;;;;;;;20.80;28.00;;;;;;8366457;28;19921;-47
2023/03/05 12:05:56;;;;;;;;;;;20.80;28.10;;;;;;8365369;28;20296;-45
2023/03/05 12:09:56;;;;;;;;;;;20.80;28.10;;;;;;8364785;28;20293;-44
2023/03/05 12:14:08;;;;;;;;;;;20.80;28.10;;;;;;8365069;28;19913;-43
2023/03/05 12:18:26;;;;;;;;;;;20.80;28.10;;;;;;8365303;28;19916;-44
2023/03/05 12:22:32;;;;;;;;;;;20.80;28.20;;;;;;8364494;28;20025;-44
2023/03/05 12:26:51;;;;;;;;;;;20.80;28.20;;;;;;8364837;28;19917;-43
2023/03/05 12:30:52;;;;;;;;;;;20.80;28.20;;;;;;8364236;28;19913;-46
2023/03/05 12:35:00;;;;;;;;;;;20.80;28.20;;;;;;8364607;28;19917;-46
2023/03/05 12:39:01;;;;;;;;;;;20.80;28.10;;;;;;8364606;28;20342;-45
2023/03/05 12:43:05;;;;;;;;;;;20.80;28.10;;;;;;8364096;28;19928;-45
2023/03/05 12:47:11;;;;;;;;;;;20.80;28.10;;;;;;8364260;28;19927;-46
2023/03/05 12:51:12;;;;;;;;;;;20.80;28.10;;;;;;8364011;28;19920;-46
2023/03/05 12:55:19;;;;;;;;;;;20.90;28.10;;;;;;8363539;28;19947;-46
2023/03/05 12:59:21;;;;;;;;;;;20.80;28.10;;;;;;8363804;28;19921;-45
2023/03/05 13:03:29;;;;;;;;;;;20.90;28.10;;;;;;8363980;28;20247;-46
2023/03/05 13:07:30;;;;;;;;;;;20.90;28.10;;;;;;8363349;28;20011;-45
2023/03/05 13:11:33;;;;;;;;;;;20.90;28.10;;;;;;8363637;28;19940;-45
2023/03/05 13:15:33;;;;;;;;;;;20.90;28.10;;;;;;8363881;28;19917;-45
2023/03/05 13:19:34;;;;;;;;;;;20.90;28.10;;;;;;8363018;28;19921;-44
2023/03/05 13:23:36;;;;;;;;;;;21.00;28.20;;;;;;8363608;28;19932;-45
2023/03/05 13:27:36;;;;;;;;;;;20.90;28.10;;;;;;8363436;28;19917;-47
2023/03/05 13:31:51;;;;;;;;;;;21.00;28.10;;;;;;8362687;28;20008;-45
2023/03/05 13:35:51;;;;;;;;;;;21.00;28.00;;;;;;8363071;28;20011;-47
2023/03/05 13:39:52;;;;;;;;;;;21.00;28.00;;;;;;8362695;28;19925;-42
2023/03/05 13:43:52;;;;;;;;;;;21.00;28.00;;;;;;8363150;28;20003;-46
2023/03/05 13:48:00;;;;;;;;;;;21.00;28.00;;;;;;8345189;28;19917;-47
2023/03/05 13:52:01;;;;;;;;;;;21.00;28.00;;;;;;8362540;28;19921;-46
2023/03/05 13:56:04;;;;;;;;;;;21.00;28.00;;;;;;8363355;28;19916;-46
2023/03/05 14:00:06;;;;;;;;;;;21.00;28.00;;;;;;8363327;28;20011;-46
2023/03/05 14:04:12;;;;;;;;;;;21.10;28.00;;;;;;8343197;28;20388;-45
2023/03/05 14:08:17;;;;;;;;;;;21.00;28.00;;;;;;8363086;28;19921;-46
2023/03/05 14:12:33;;;;;;;;;;;21.10;28.10;;;;;;8369208;28;19923;-46
2023/03/05 14:16:33;;;;;;;;;;;21.10;28.00;;;;;;8368357;28;19923;-44
2023/03/05 14:20:34;;;;;;;;;;;21.10;28.00;;;;;;8369027;28;19920;-46
2023/03/05 14:24:35;;;;;;;;;;;21.10;28.00;;;;;;8368664;28;19925;-45
2023/03/05 14:28:36;;;;;;;;;;;21.10;28.00;;;;;;8368474;28;19963;-46
2023/03/05 14:32:37;;;;;;;;;;;21.10;28.00;;;;;;8368949;28;19923;-44
2023/03/05 14:36:37;;;;;;;;;;;21.10;28.00;;;;;;8368538;28;20289;-46
2023/03/05 14:40:38;;;;;;;;;;;21.10;28.00;;;;;;8367675;28;19916;-46
2023/03/05 14:44:39;;;;;;;;;;;21.10;28.00;;;;;;8367893;28;19921;-45
2023/03/05 14:48:39;;;;;;;;;;;21.10;28.00;;;;;;8368413;28;20301;-45
2023/03/05 14:52:40;;;;;;;;;;;21.10;28.00;;;;;;8366942;28;19970;-44
2023/03/05 14:56:40;;;;;;;;;;;21.00;28.00;;;;;;8367724;28;19924;-43
2023/03/05 15:00:42;;;;;;;;;;;21.00;28.00;;;;;;8368089;28;19920;-44
2023/03/05 15:04:44;;;;;;;;;;;21.00;28.00;;;;;;8366928;28;20289;-44
2023/03/05 15:08:45;;;;;;;;;;;21.00;28.00;;;;;;8367462;28;19919;-45
2023/03/05 15:12:45;;;;;;;;;;;21.00;28.00;;;;;;8367252;28;19917;-45
2023/03/05 15:16:47;;;;;;;;;;;21.10;28.10;;;;;;8366253;28;19916;-46
2023/03/05 15:20:50;;;;;;;;;;;21.00;28.10;;;;;;8367161;28;20289;-44
2023/03/05 15:24:51;;;;;;;;;;;21.10;28.10;;;;;;8366600;28;19948;-44
2023/03/05 15:28:51;;;;;;;;;;;21.00;28.50;;;;;;8367137;28;20325;-46
2023/03/05 15:32:52;;;;;;;;;;;21.00;28.00;;;;;;8366563;28;19917;-44
2023/03/05 15:36:54;;;;;;;;;;;21.10;28.10;;;;;;8366181;28;20011;-44
2023/03/05 15:40:55;;;;;;;;;;;21.10;28.00;;;;;;8366654;28;19924;-46
2023/03/05 15:44:55;;;;;;;;;;;21.10;28.00;;;;;;8348326;28;19960;-46
2023/03/05 15:48:56;;;;;;;;;;;21.10;28.00;;;;;;8347543;28;19952;-46
2023/03/05 15:52:57;;;;;;;;;;;21.10;28.00;;;;;;8366083;28;19916;-45
2023/03/05 15:56:57;;;;;;;;;;;21.10;28.00;;;;;;8366196;28;20340;-45
2023/03/05 16:00:58;;;;;;;;;;;21.10;28.00;;;;;;8365926;28;19983;-45
2023/03/05 16:04:58;;;;;;;;;;;21.10;28.00;;;;;;8366018;28;19974;-45
2023/03/05 16:09:00;;;;;;;;;;;21.10;28.40;;;;;;8365695;28;20067;-44
2023/03/05 16:13:02;;;;;;;;;;;21.10;28.00;;;;;;8364894;28;19971;-44
2023/03/05 16:17:04;;;;;;;;;;;21.10;28.00;;;;;;8365678;28;19940;-46
2023/03/05 16:21:04;;;;;;;;;;;21.10;28.00;;;;;;8365035;28;19917;-44
2023/03/05 16:25:05;;;;;;;;;;;21.00;27.90;;;;;;8364883;28;19955;-45
2023/03/05 16:29:06;;;;;;;;;;;21.00;27.90;;;;;;8364539;28;19916;-47
2023/03/05 16:33:07;;;;;;;;;;;21.10;28.00;;;;;;8364155;28;19917;-45
2023/03/05 16:37:07;;;;;;;;;;;21.00;27.90;;;;;;8364166;28;20124;-45
2023/03/05 16:41:07;;;;;;;;;;;21.00;27.90;;;;;;8364756;28;19943;-45
2023/03/05 16:45:09;;;;;;;;;;;21.00;28.00;;;;;;8364631;28;20062;-44
2023/03/05 16:49:10;;;;;;;;;;;21.00;28.00;;;;;;8363734;28;19917;-45
2023/03/05 16:53:10;;;;;;;;;;;21.00;28.00;;;;;;8364427;28;20298;-44
2023/03/05 16:57:10;;;;;;;;;;;21.00;28.00;;;;;;8364157;28;19920;-45
2023/03/05 17:01:13;;;;;;;;;;;21.00;28.00;;;;;;8360355;28;20509;-44
2023/03/05 17:05:13;;;;;;;;;;;21.00;28.00;;;;;;8331057;28;19933;-45
2023/03/05 17:09:14;;;;;;;;;;;21.00;28.00;;;;;;8361214;28;19924;-47
2023/03/05 17:13:14;;;;;;;;;;;21.00;27.90;;;;;;8362669;28;20295;-42
2023/03/05 17:17:15;;;;;;;;;;;21.00;28.00;;;;;;8363837;28;19927;-42
2023/03/05 17:21:15;;;;;;;;;;;21.00;28.00;;;;;;8363170;28;20027;-43
2023/03/05 17:25:16;;;;;;;;;;;21.00;28.00;;;;;;8362534;28;20378;-45
2023/03/05 17:29:17;;;;;;;;;;;21.00;28.00;;;;;;8363479;28;20297;-45
2023/03/05 17:33:18;;;;;;;;;;;21.00;28.10;;;;;;8362833;28;19939;-44
2023/03/05 17:37:18;;;;;;;;;;;21.00;28.10;;;;;;8362527;28;19917;-45
2023/03/05 17:41:19;;;;;;;;;;;20.90;28.00;;;;;;8362817;28;19917;-45
2023/03/05 17:45:20;;;;;;;;;;;20.90;28.00;;;;;;8362173;28;19921;-44
2023/03/05 17:49:20;;;;;;;;;;;20.90;28.00;;;;;;8362260;28;19917;-45
2023/03/05 17:53:21;;;;;;;;;;;21.00;28.00;;;;;;8362777;28;19987;-46
2023/03/05 17:57:22;;;;;;;;;;;20.90;28.00;;;;;;8362736;28;20075;-46
2023/03/05 18:01:24;;;;;;;;;;;20.90;28.00;;;;;;8361738;28;20381;-44
2023/03/05 18:05:25;;;;;;;;;;;20.90;28.10;;;;;;8345179;28;19974;-45
2023/03/05 18:09:26;;;;;;;;;;;20.90;28.10;;;;;;8362755;28;19921;-46
2023/03/05 18:13:26;;;;;;;;;;;20.90;28.10;;;;;;8362174;28;19917;-45
2023/03/05 18:17:27;;;;;;;;;;;20.90;28.10;;;;;;8362079;28;20425;-45
2023/03/05 18:21:27;;;;;;;;;;;20.90;28.10;;;;;;8362256;28;20282;-46
2023/03/05 18:25:29;;;;;;;;;;;20.90;28.10;;;;;;8361731;28;19920;-45
2023/03/05 18:29:30;;;;;;;;;;;20.90;28.10;;;;;;8362126;28;19940;-45
2023/03/05 18:33:31;;;;;;;;;;;20.90;28.10;;;;;;8361871;28;19917;-46
2023/03/05 18:37:32;;;;;;;;;;;20.90;28.00;;;;;;8361460;28;20015;-45
2023/03/05 18:41:32;;;;;;;;;;;20.90;28.00;;;;;;8361863;28;19921;-45
2023/03/05 18:45:33;;;;;;;;;;;20.90;28.10;;;;;;8361940;28;19921;-45
2023/03/05 18:49:33;;;;;;;;;;;20.90;28.00;;;;;;8361795;28;19921;-44
2023/03/05 18:53:33;;;;;;;;;;;20.90;28.00;;;;;;8361819;28;19925;-44
2023/03/05 18:57:34;;;;;;;;;;;20.90;28.10;;;;;;8367033;28;19925;-45
2023/03/05 19:01:34;;;;;;;;;;;20.90;28.10;;;;;;8367849;28;19974;-45
2023/03/05 19:05:35;;;;;;;;;;;20.90;28.10;;;;;;8367986;28;19936;-45
2023/03/05 19:09:51;;;;;;;;;;;20.90;28.00;;;;;;8367248;28;19920;-45
2023/03/05 19:13:51;;;;;;;;;;;20.90;28.10;;;;;;8367180;28;19917;-46
2023/03/05 19:17:53;;;;;;;;;;;20.90;28.10;;;;;;8367030;28;19913;-45
2023/03/05 19:21:58;;;;;;;;;;;20.90;28.10;;;;;;8366268;28;20368;-44
2023/03/05 19:25:59;;;;;;;;;;;20.90;28.00;;;;;;8367182;28;19928;-45
2023/03/05 19:30:00;;;;;;;;;;;20.90;28.00;;;;;;8366555;28;20007;-44
2023/03/05 19:34:02;;;;;;;;;;;20.90;28.10;;;;;;8365846;28;19917;-44
2023/03/05 19:38:02;;;;;;;;;;;20.90;28.10;;;;;;8366472;28;19923;-45
2023/03/05 19:42:03;;;;;;;;;;;20.90;28.10;;;;;;8366439;28;19913;-43
2023/03/05 19:46:05;;;;;;;;;;;20.90;28.10;;;;;;8365633;28;19978;-45
2023/03/05 19:50:05;;;;;;;;;;;20.80;28.00;;;;;;8366238;28;20397;-44
2023/03/05 19:54:06;;;;;;;;;;;20.90;28.00;;;;;;8365937;28;19923;-45
2023/03/05 19:58:06;;;;;;;;;;;20.80;28.00;;;;;;8365014;28;19917;-44
2023/03/05 20:02:09;;;;;;;;;;;20.80;28.00;;;;;;8365723;28;19921;-44
2023/03/05 20:06:09;;;;;;;;;;;20.80;28.00;;;;;;8365541;28;19921;-46
2023/03/05 20:10:10;;;;;;;;;;;20.80;28.00;;;;;;8365090;28;19921;-45
2023/03/05 20:14:13;;;;;;;;;;;20.80;28.00;;;;;;8356688;28;19921;-45
2023/03/05 20:18:13;;;;;;;;;;;20.80;28.00;;;;;;8365503;28;19925;-44
2023/03/05 20:22:14;;;;;;;;;;;20.80;28.00;;;;;;8364781;28;19920;-45
2023/03/05 20:26:15;;;;;;;;;;;20.80;28.00;;;;;;8347237;28;19921;-44
2023/03/05 20:30:16;;;;;;;;;;;20.80;28.00;;;;;;8365247;28;19916;-45
2023/03/05 20:34:18;;;;;;;;;;;20.80;28.00;;;;;;8363970;28;19944;-45
2023/03/05 20:38:19;;;;;;;;;;;20.80;28.00;;;;;;8364674;28;19917;-42
2023/03/05 20:42:20;;;;;;;;;;;20.80;28.00;;;;;;8364566;28;19917;-44
2023/03/05 20:46:27;;;;;;;;;;;20.80;28.00;;;;;;8363948;28;19960;-44
2023/03/05 20:50:27;;;;;;;;;;;20.80;28.00;;;;;;8346128;28;19917;-44
2023/03/05 20:54:28;;;;;;;;;;;20.80;28.00;;;;;;8363922;28;19917;-46
2023/03/05 20:58:28;;;;;;;;;;;20.80;28.00;;;;;;8363349;28;20285;-43
2023/03/05 21:02:29;;;;;;;;;;;20.80;28.00;;;;;;8363935;28;19963;-45
2023/03/05 21:06:30;;;;;;;;;;;20.80;28.00;;;;;;8363864;28;19927;-45
2023/03/05 21:10:30;;;;;;;;;;;20.70;28.00;;;;;;8363041;28;19963;-45
2023/03/05 21:14:36;;;;;;;;;;;20.70;28.00;;;;;;8363193;28;20675;-45
2023/03/05 21:18:36;;;;;;;;;;;20.70;28.00;;;;;;8363431;28;19913;-44
2023/03/05 21:22:37;;;;;;;;;;;20.70;28.00;;;;;;8362958;28;19920;-44
2023/03/05 21:26:37;;;;;;;;;;;20.70;28.00;;;;;;8363472;28;19913;-45
2023/03/05 21:30:42;;;;;;;;;;;20.70;27.90;;;;;;8363156;28;19917;-44
2023/03/05 21:34:43;;;;;;;;;;;20.60;28.00;;;;;;8362508;28;19917;-44
2023/03/05 21:38:44;;;;;;;;;;;20.60;28.00;;;;;;8362942;28;20369;-45
2023/03/05 21:42:45;;;;;;;;;;;20.60;28.10;;;;;;8362967;28;19916;-43
2023/03/05 21:46:45;;;;;;;;;;;20.50;28.10;;;;;;8362388;28;20453;-44
2023/03/05 21:50:46;;;;;;;;;;;20.50;28.20;;;;;;8362732;28;20354;-45
2023/03/05 21:54:47;;;;;;;;;;;20.50;28.20;;;;;;8362632;28;19920;-44
2023/03/05 21:58:47;;;;;;;;;;;20.40;28.20;;;;;;8362173;28;19927;-45
2023/03/05 22:02:48;;;;;;;;;;;20.40;28.30;;;;;;8362800;28;20389;-45
2023/03/05 22:06:48;;;;;;;;;;;20.40;28.30;;;;;;8362956;28;19913;-44
2023/03/05 22:10:49;;;;;;;;;;;20.30;28.30;;;;;;8362144;28;19924;-45
2023/03/05 22:14:50;;;;;;;;;;;20.30;28.30;;;;;;8344410;28;19948;-44
2023/03/05 22:18:51;;;;;;;;;;;20.20;28.30;;;;;;8361959;28;19917;-42
2023/03/05 22:22:51;;;;;;;;;;;20.20;28.30;;;;;;8362386;28;19921;-44
2023/03/05 22:26:51;;;;;;;;;;;20.20;28.30;;;;;;8362536;28;20011;-43
2023/03/05 22:30:52;;;;;;;;;;;20.20;28.40;;;;;;8364496;28;19917;-44
2023/03/05 22:34:56;;;;;;;;;;;20.20;28.40;;;;;;8368439;28;19924;-43
2023/03/05 22:38:56;;;;;;;;;;;20.10;28.40;;;;;;8367965;28;19975;-44
2023/03/05 22:42:57;;;;;;;;;;;20.10;28.50;;;;;;8367688;28;19926;-44
2023/03/05 22:46:57;;;;;;;;;;;20.10;28.40;;;;;;8368516;28;19913;-45
2023/03/05 22:50:58;;;;;;;;;;;20.10;28.40;;;;;;8367856;28;20003;-45
2023/03/05 22:55:01;;;;;;;;;;;20.00;28.40;;;;;;8367246;28;19913;-44
2023/03/05 22:59:02;;;;;;;;;;;20.00;28.40;;;;;;8367994;28;19921;-44
2023/03/05 23:03:02;;;;;;;;;;;20.00;28.40;;;;;;8349040;28;19924;-45
2023/03/05 23:07:03;;;;;;;;;;;19.90;28.40;;;;;;8366561;28;19991;-44
2023/03/05 23:11:07;;;;;;;;;;;19.90;28.50;;;;;;8349362;28;19917;-43
2023/03/05 23:15:10;;;;;;;;;;;19.90;28.50;;;;;;8367341;28;20385;-43
2023/03/05 23:19:10;;;;;;;;;;;19.80;28.50;;;;;;8366640;28;19925;-43
2023/03/05 23:23:11;;;;;;;;;;;19.80;28.50;;;;;;8366984;28;20003;-44
2023/03/05 23:27:13;;;;;;;;;;;19.80;28.50;;;;;;8367294;28;19936;-44